createdAt,value
2019-04-03T00:02:21.223Z,35.84
2019-04-03T00:04:53.010Z,35.87
2019-04-03T00:07:24.763Z,35.93
2019-04-03T00:09:56.384Z,36.01
2019-04-03T00:12:28.505Z,36.08
2019-04-03T00:15:00.277Z,36.16
2019-04-03T00:17:31.845Z,36.21
2019-04-03T00:20:03.650Z,36.27
2019-04-03T00:22:35.242Z,36.32
2019-04-03T00:25:09.304Z,36.37
2019-04-03T00:27:40.971Z,36.42
2019-04-03T00:30:14.065Z,36.49
2019-04-03T00:32:45.647Z,36.54
2019-04-03T00:35:17.555Z,36.61
2019-04-03T00:37:53.259Z,36.70
2019-04-03T00:40:24.978Z,36.75
2019-04-03T00:42:56.715Z,36.87
2019-04-03T00:45:28.374Z,37.03
2019-04-03T00:48:00.316Z,37.25
2019-04-03T00:50:32.314Z,37.51
2019-04-03T00:53:03.900Z,37.69
2019-04-03T00:55:35.506Z,37.80
2019-04-03T00:58:36.766Z,38.07
2019-04-03T01:01:12.187Z,38.25
2019-04-03T01:03:45.357Z,38.41
2019-04-03T01:06:17.306Z,38.60
2019-04-03T01:08:48.934Z,38.79
2019-04-03T01:11:20.959Z,38.98
2019-04-03T01:13:52.693Z,39.13
2019-04-03T01:16:24.899Z,39.27
2019-04-03T01:18:56.566Z,39.40
2019-04-03T01:21:28.368Z,39.53
2019-04-03T01:24:00.384Z,39.72
2019-04-03T01:26:31.992Z,39.86
2019-04-03T01:29:03.859Z,39.94
2019-04-03T01:31:35.382Z,40.03
2019-04-03T01:34:07.037Z,40.16
2019-04-03T01:36:38.787Z,40.41
2019-04-03T01:39:10.424Z,40.48
2019-04-03T01:41:42.483Z,40.62
2019-04-03T01:44:14.632Z,40.72
2019-04-03T01:46:46.241Z,40.85
2019-04-03T01:49:17.973Z,41.01
2019-04-03T01:56:52.395Z,41.25
2019-04-03T01:59:24.091Z,41.30
2019-04-03T02:01:55.730Z,41.39
2019-04-03T02:04:27.587Z,41.45
2019-04-03T02:06:59.312Z,41.59
2019-04-03T02:09:31.603Z,41.79
2019-04-03T02:12:03.729Z,41.83
2019-04-03T02:14:35.414Z,41.89
2019-04-03T02:17:07.025Z,41.99
2019-04-03T02:19:38.672Z,42.10
2019-04-03T02:22:11.194Z,42.08
2019-04-03T02:24:43.017Z,42.12
2019-04-03T02:27:14.699Z,42.22
2019-04-03T02:29:46.412Z,42.31
2019-04-03T02:32:18.222Z,42.32
2019-04-03T02:34:49.972Z,42.36
2019-04-03T02:37:22.060Z,42.49
2019-04-03T02:39:58.988Z,42.57
2019-04-03T02:42:28.122Z,42.70
2019-04-03T02:44:59.682Z,42.83
2019-04-03T02:47:33.611Z,42.88
2019-04-03T02:50:04.808Z,42.96
2019-04-03T02:52:37.406Z,43.01
2019-04-03T02:55:09.248Z,43.04
2019-04-03T02:57:40.971Z,43.16
2019-04-03T03:00:13.272Z,43.29
2019-04-03T03:02:46.110Z,43.33
2019-04-03T03:05:18.146Z,43.38
2019-04-03T03:07:49.759Z,43.47
2019-04-03T03:10:21.867Z,43.53
2019-04-03T03:12:54.168Z,43.65
2019-04-03T03:15:28.171Z,43.69
2019-04-03T03:18:00.494Z,43.79
2019-04-03T03:20:33.376Z,43.87
2019-04-03T03:23:05.398Z,43.99
2019-04-03T03:25:38.012Z,44.02
2019-04-03T03:28:13.239Z,44.14
2019-04-03T03:30:54.750Z,44.20
2019-04-03T03:33:29.756Z,44.33
2019-04-03T03:35:52.431Z,44.43
2019-04-03T03:38:28.155Z,44.45
2019-04-03T03:40:59.219Z,44.57
2019-04-03T03:43:31.247Z,44.67
2019-04-03T03:46:03.538Z,44.73
2019-04-03T03:48:35.109Z,44.84
2019-04-03T03:51:07.384Z,44.94
2019-04-03T03:53:43.881Z,45.07
2019-04-03T03:56:13.112Z,45.14
2019-04-03T03:58:46.011Z,45.21
2019-04-03T04:01:19.384Z,45.30
2019-04-03T04:03:51.507Z,45.44
2019-04-03T04:06:28.269Z,45.51
2019-04-03T04:08:57.136Z,45.60
2019-04-03T04:11:31.113Z,45.58
2019-04-03T04:14:03.948Z,45.71
2019-04-03T04:16:38.337Z,45.81
2019-04-03T04:19:10.129Z,45.85
2019-04-03T04:21:44.042Z,45.91
2019-04-03T04:24:15.544Z,45.93
2019-04-03T04:26:49.771Z,45.93
2019-04-03T04:29:20.717Z,46.11
2019-04-03T04:31:52.969Z,46.21
2019-04-03T04:34:24.699Z,46.23
2019-04-03T04:36:56.540Z,46.39
2019-04-03T04:39:29.009Z,46.49
2019-04-03T04:42:03.414Z,46.61
2019-04-03T04:44:34.838Z,46.69
2019-04-03T04:47:07.260Z,46.83
2019-04-03T04:49:38.887Z,46.88
2019-04-03T04:52:10.465Z,47.01
2019-04-03T04:54:42.986Z,47.12
2019-04-03T04:57:14.691Z,47.12
2019-04-03T04:59:46.496Z,47.16
2019-04-03T05:02:19.861Z,47.14
2019-04-03T05:04:52.134Z,47.27
2019-04-03T05:07:23.899Z,47.36
2019-04-03T05:09:55.502Z,47.45
2019-04-03T05:12:27.567Z,47.59
2019-04-03T05:14:59.321Z,47.58
2019-04-03T05:17:31.673Z,47.66
2019-04-03T05:20:03.694Z,47.62
2019-04-03T05:22:35.443Z,47.59
2019-04-03T05:25:07.460Z,47.55
2019-04-03T05:27:39.120Z,47.59
2019-04-03T05:30:11.029Z,47.62
2019-04-03T05:32:42.699Z,47.59
2019-04-03T05:35:15.545Z,47.63
2019-04-03T05:37:47.152Z,47.71
2019-04-03T05:40:19.029Z,47.78
2019-04-03T05:42:50.919Z,47.85
2019-04-03T05:45:22.521Z,47.99
2019-04-03T05:47:54.330Z,48.16
2019-04-03T05:50:27.185Z,48.23
2019-04-03T05:52:59.045Z,48.26
2019-04-03T05:55:30.800Z,48.30
2019-04-03T05:58:02.739Z,48.36
2019-04-03T06:00:34.406Z,48.36
2019-04-03T06:03:06.175Z,48.38
2019-04-03T06:05:38.498Z,48.42
2019-04-03T06:08:10.099Z,48.43
2019-04-03T06:10:41.834Z,48.47
2019-04-03T06:13:16.568Z,48.53
2019-04-03T06:15:47.480Z,48.52
2019-04-03T06:18:19.301Z,48.60
2019-04-03T06:20:51.993Z,48.62
2019-04-03T06:23:23.854Z,48.76
2019-04-03T06:25:56.067Z,48.85
2019-04-03T06:28:27.709Z,48.94
2019-04-03T06:30:59.351Z,48.99
2019-04-03T06:33:32.078Z,49.12
2019-04-03T06:36:04.596Z,49.13
2019-04-03T06:38:36.562Z,49.11
2019-04-03T06:41:09.155Z,49.13
2019-04-03T06:43:41.407Z,49.10
2019-04-03T06:46:13.050Z,49.12
2019-04-03T06:48:44.926Z,49.16
2019-04-03T06:51:17.857Z,49.21
2019-04-03T06:53:49.482Z,49.28
2019-04-03T06:56:21.382Z,49.34
2019-04-03T06:58:53.032Z,49.37
2019-04-03T07:01:25.126Z,49.48
2019-04-03T07:03:57.085Z,49.53
2019-04-03T07:06:29.010Z,49.57
2019-04-03T07:09:00.950Z,49.67
2019-04-03T07:11:33.432Z,49.76
2019-04-03T07:14:05.292Z,49.81
2019-04-03T07:16:38.588Z,49.79
2019-04-03T07:19:10.336Z,49.74
2019-04-03T07:21:42.169Z,49.75
2019-04-03T07:24:14.056Z,49.80
2019-04-03T07:26:45.689Z,49.86
2019-04-03T07:29:17.812Z,49.82
2019-04-03T07:31:49.464Z,49.91
2019-04-03T07:34:21.495Z,49.97
2019-04-03T07:36:53.104Z,49.99
2019-04-03T07:39:24.965Z,50.05
2019-04-03T07:41:57.275Z,50.05
2019-04-03T07:44:30.600Z,50.15
2019-04-03T07:47:04.026Z,50.18
2019-04-03T07:49:35.824Z,50.24
2019-04-03T07:52:07.435Z,50.32
2019-04-03T07:54:39.472Z,50.34
2019-04-03T07:57:11.122Z,50.41
2019-04-03T07:59:42.987Z,50.52
2019-04-03T08:02:15.174Z,50.52
2019-04-03T08:04:47.078Z,50.54
2019-04-03T08:07:18.706Z,50.51
2019-04-03T08:09:50.835Z,50.58
2019-04-03T08:12:22.982Z,50.59
2019-04-03T08:14:54.901Z,50.62
2019-04-03T08:17:26.641Z,50.70
2019-04-03T08:19:58.221Z,50.85
2019-04-03T08:22:32.732Z,51.00
2019-04-03T08:25:03.546Z,51.09
2019-04-03T08:27:35.747Z,51.10
2019-04-03T08:30:08.629Z,51.16
2019-04-03T08:32:40.780Z,51.23
2019-04-03T08:35:20.388Z,51.31
2019-04-03T08:37:46.284Z,51.42
2019-04-03T08:40:20.436Z,51.56
2019-04-03T08:42:51.351Z,51.67
2019-04-03T08:45:23.010Z,51.74
2019-04-03T08:47:54.701Z,51.82
2019-04-03T08:50:26.792Z,51.86
2019-04-03T08:52:59.983Z,51.90
2019-04-03T08:55:31.972Z,51.96
2019-04-03T08:58:03.612Z,52.04
2019-04-03T09:00:35.522Z,52.10
2019-04-03T09:03:07.728Z,52.14
2019-04-03T09:05:39.739Z,52.14
2019-04-03T09:08:11.389Z,52.01
2019-04-03T09:10:43.314Z,51.92
2019-04-03T09:13:18.508Z,51.96
2019-04-03T09:15:49.099Z,52.00
2019-04-03T09:18:20.810Z,51.96
2019-04-03T09:20:52.695Z,52.01
2019-04-03T09:23:25.103Z,52.02
2019-04-03T09:25:57.347Z,51.97
2019-04-03T09:28:29.176Z,51.93
2019-04-03T09:31:01.385Z,51.97
2019-04-03T09:33:33.383Z,51.88
2019-04-03T09:36:05.432Z,51.92
2019-04-03T09:38:37.517Z,52.06
2019-04-03T09:41:09.416Z,52.03
2019-04-03T09:43:41.084Z,51.94
2019-04-03T09:46:13.059Z,52.00
2019-04-03T09:48:45.092Z,52.13
2019-04-03T09:51:18.302Z,52.34
2019-04-03T09:53:50.364Z,52.40
2019-04-03T09:56:22.269Z,52.47
2019-04-03T09:58:56.307Z,52.39
2019-04-03T10:01:27.539Z,52.35
2019-04-03T10:03:59.185Z,52.37
2019-04-03T10:06:31.951Z,52.33
2019-04-03T10:09:05.518Z,52.29
2019-04-03T10:11:39.235Z,52.24
2019-04-03T10:14:12.032Z,52.06
2019-04-03T10:16:43.967Z,52.01
2019-04-03T10:19:16.037Z,52.12
2019-04-03T10:21:48.202Z,52.15
2019-04-03T10:24:20.127Z,52.25
2019-04-03T10:26:51.786Z,52.21
2019-04-03T10:29:23.685Z,52.27
2019-04-03T10:31:56.264Z,52.32
2019-04-03T10:34:28.131Z,52.34
2019-04-03T10:37:00.273Z,52.33
2019-04-03T10:39:32.269Z,52.36
2019-04-03T10:42:04.285Z,52.34
2019-04-03T10:44:36.255Z,52.10
2019-04-03T10:47:07.956Z,51.93
2019-04-03T10:49:39.859Z,51.93
2019-04-03T10:52:13.385Z,51.91
2019-04-03T10:54:45.056Z,51.78
2019-04-03T10:57:17.099Z,51.72
2019-04-03T10:59:53.547Z,51.80
2019-04-03T11:02:22.693Z,51.73
2019-04-03T11:04:55.769Z,51.69
2019-04-03T11:07:27.826Z,51.51
2019-04-03T11:10:01.129Z,51.31
2019-04-03T11:12:34.501Z,51.17
2019-04-03T11:15:10.540Z,51.10
2019-04-03T11:17:42.018Z,51.02
2019-04-03T11:20:16.279Z,50.88
2019-04-03T11:22:49.613Z,50.75
2019-04-03T11:25:21.670Z,50.60
2019-04-03T11:27:53.918Z,50.56
2019-04-03T11:30:26.460Z,50.34
2019-04-03T11:32:58.103Z,50.21
2019-04-03T11:35:30.261Z,50.30
2019-04-03T11:38:12.810Z,50.34
2019-04-03T11:40:38.479Z,50.25
2019-04-03T11:43:10.299Z,50.37
2019-04-03T11:45:43.058Z,50.45
2019-04-03T11:48:16.962Z,50.41
2019-04-03T11:50:48.231Z,50.34
2019-04-03T11:53:19.899Z,50.25
2019-04-03T11:55:51.589Z,50.12
2019-04-03T11:58:23.210Z,50.10
2019-04-03T12:00:55.908Z,50.16
2019-04-03T12:03:27.540Z,50.08
2019-04-03T12:05:59.275Z,50.00
2019-04-03T12:08:30.886Z,49.87
2019-04-03T12:11:05.380Z,49.69
2019-04-03T12:13:37.141Z,49.59
2019-04-03T12:16:09.739Z,49.52
2019-04-03T12:18:41.758Z,49.44
2019-04-03T12:21:14.661Z,49.36
2019-04-03T12:23:47.040Z,49.31
2019-04-03T12:26:20.726Z,49.24
2019-04-03T12:28:52.110Z,49.13
2019-04-03T12:31:25.248Z,48.89
2019-04-03T12:34:03.882Z,48.86
2019-04-03T12:36:30.783Z,48.92
2019-04-03T12:39:02.410Z,48.91
2019-04-03T12:41:36.340Z,49.01
2019-04-03T12:44:07.950Z,49.02
2019-04-03T12:46:41.308Z,49.02
2019-04-03T12:49:13.817Z,49.05
2019-04-03T12:51:45.529Z,49.12
2019-04-03T12:54:19.848Z,49.10
2019-04-03T12:56:50.784Z,49.08
2019-04-03T12:59:22.833Z,49.02
2019-04-03T13:01:55.040Z,49.02
2019-04-03T13:04:30.180Z,48.99
2019-04-03T13:07:01.127Z,48.97
2019-04-03T13:09:33.076Z,49.01
2019-04-03T13:12:05.459Z,49.06
2019-04-03T13:14:39.528Z,49.13
2019-04-03T13:17:13.502Z,49.23
2019-04-03T13:19:46.267Z,49.22
2019-04-03T13:22:18.810Z,49.08
2019-04-03T13:24:50.840Z,48.93
2019-04-03T13:27:22.481Z,48.68
2019-04-03T13:29:54.317Z,48.73
2019-04-03T13:32:25.982Z,48.73
2019-04-03T13:34:58.408Z,48.68
2019-04-03T13:37:30.751Z,48.73
2019-04-03T13:40:05.183Z,48.96
2019-04-03T13:42:36.578Z,49.07
2019-04-03T13:45:09.455Z,49.18
2019-04-03T13:47:42.971Z,49.22
2019-04-03T13:50:15.402Z,49.22
2019-04-03T13:52:49.352Z,49.14
2019-04-03T13:55:20.949Z,49.12
2019-04-03T13:57:52.736Z,48.96
2019-04-03T14:00:26.563Z,48.99
2019-04-03T14:02:58.325Z,48.92
2019-04-03T14:05:32.922Z,48.83
2019-04-03T14:08:06.518Z,48.79
2019-04-03T14:10:37.790Z,48.75
2019-04-03T14:13:12.212Z,48.67
2019-04-03T14:15:43.897Z,48.53
2019-04-03T14:18:15.651Z,48.29
2019-04-03T14:20:50.380Z,48.29
2019-04-03T14:23:21.439Z,48.42
2019-04-03T14:26:03.023Z,48.49
2019-04-03T14:28:26.693Z,48.45
2019-04-03T14:30:58.423Z,48.51
2019-04-03T14:33:41.668Z,48.61
2019-04-03T14:36:04.269Z,48.71
2019-04-03T14:38:35.891Z,48.77
2019-04-03T14:41:07.727Z,48.90
2019-04-03T14:43:39.479Z,48.96
2019-04-03T14:46:11.203Z,49.06
2019-04-03T14:48:42.872Z,49.13
2019-04-03T14:51:15.375Z,49.22
2019-04-03T14:53:47.110Z,49.34
2019-04-03T14:56:18.753Z,49.45
2019-04-03T14:58:50.498Z,49.63
2019-04-03T15:01:22.654Z,49.78
2019-04-03T15:03:54.794Z,50.02
2019-04-03T15:06:27.081Z,50.23
2019-04-03T15:08:59.049Z,50.49
2019-04-03T15:11:30.869Z,50.72
2019-04-03T15:14:03.120Z,50.92
2019-04-03T15:16:35.244Z,51.26
2019-04-03T15:19:07.187Z,51.74
2019-04-03T15:21:39.802Z,51.82
2019-04-03T15:24:12.293Z,51.98
2019-04-03T15:26:44.698Z,52.23
2019-04-03T15:29:16.847Z,52.52
2019-04-03T15:31:49.225Z,52.68
2019-04-03T15:34:21.082Z,52.72
2019-04-03T15:36:53.349Z,52.72
2019-04-03T15:39:26.270Z,52.83
2019-04-03T15:41:58.136Z,52.88
2019-04-03T15:44:29.815Z,52.85
2019-04-03T15:47:02.266Z,52.85
2019-04-03T15:49:34.169Z,52.89
2019-04-03T15:52:06.346Z,52.86
2019-04-03T15:54:39.071Z,53.01
2019-04-03T15:57:11.034Z,53.11
2019-04-03T15:59:43.527Z,53.22
2019-04-03T16:02:15.785Z,53.30
2019-04-03T16:04:47.848Z,53.41
2019-04-03T16:07:19.858Z,53.50
2019-04-03T16:09:52.279Z,53.54
2019-04-03T16:12:24.363Z,53.58
2019-04-03T16:14:56.618Z,53.53
2019-04-03T16:17:28.553Z,53.55
2019-04-03T16:20:00.837Z,53.50
2019-04-03T16:22:32.782Z,53.53
2019-04-03T16:25:05.913Z,53.58
2019-04-03T16:27:37.994Z,53.57
2019-04-03T16:30:14.257Z,53.64
2019-04-03T16:32:44.614Z,53.63
2019-04-03T16:35:17.488Z,53.62
2019-04-03T16:37:50.612Z,53.58
2019-04-03T16:40:23.625Z,53.58
2019-04-03T16:42:55.587Z,53.57
2019-04-03T16:45:27.311Z,53.55
2019-04-03T16:47:59.701Z,53.58
2019-04-03T16:50:31.639Z,53.56
2019-04-03T16:53:03.550Z,53.61
2019-04-03T16:55:38.113Z,53.69
2019-04-03T16:58:10.145Z,53.79
2019-04-03T17:00:42.798Z,53.82
2019-04-03T17:03:14.975Z,53.86
2019-04-03T17:05:47.384Z,53.85
2019-04-03T17:08:19.467Z,53.87
2019-04-03T17:10:52.780Z,53.92
2019-04-03T17:13:24.914Z,53.99
2019-04-03T17:15:57.338Z,53.95
2019-04-03T17:18:30.315Z,54.02
2019-04-03T17:21:02.039Z,54.05
2019-04-03T17:23:33.856Z,54.08
2019-04-03T17:26:09.301Z,54.18
2019-04-03T17:28:40.604Z,54.21
2019-04-03T17:31:12.878Z,54.19
2019-04-03T17:33:45.006Z,54.30
2019-04-03T17:36:19.166Z,54.27
2019-04-03T17:38:50.349Z,54.40
2019-04-03T17:41:22.061Z,54.46
2019-04-03T17:43:54.261Z,54.55
2019-04-03T17:46:26.262Z,54.60
2019-04-03T17:48:58.032Z,54.72
2019-04-03T17:51:29.747Z,54.72
2019-04-03T17:54:01.700Z,54.77
2019-04-03T17:56:35.579Z,54.79
2019-04-03T17:59:07.914Z,54.83
2019-04-03T18:01:39.725Z,54.96
2019-04-03T18:04:11.487Z,55.03
2019-04-03T18:06:43.426Z,55.03
2019-04-03T18:09:15.347Z,55.06
2019-04-03T18:11:47.630Z,55.07
2019-04-03T18:14:20.785Z,55.07
2019-04-03T18:16:52.512Z,55.08
2019-04-03T18:19:36.549Z,55.03
2019-04-03T18:21:57.827Z,55.06
2019-04-03T18:24:29.529Z,55.05
2019-04-03T18:27:02.508Z,55.08
2019-04-03T18:29:37.338Z,55.14
2019-04-03T18:32:09.292Z,55.11
2019-04-03T18:34:41.156Z,55.07
2019-04-03T18:37:13.295Z,55.08
2019-04-03T18:39:45.356Z,55.14
2019-04-03T18:42:18.613Z,55.11
2019-04-03T18:44:51.527Z,55.16
2019-04-03T18:47:23.397Z,55.14
2019-04-03T18:49:55.573Z,55.22
2019-04-03T18:52:27.999Z,55.23
2019-04-03T18:55:00.032Z,55.22
2019-04-03T18:57:31.826Z,55.23
2019-04-03T19:00:04.253Z,55.25
2019-04-03T19:02:36.112Z,55.26
2019-04-03T19:05:10.953Z,55.25
2019-04-03T19:07:45.726Z,55.24
2019-04-03T19:10:18.182Z,55.31
2019-04-03T19:12:50.354Z,55.31
2019-04-03T19:15:22.873Z,55.31
2019-04-03T19:18:00.350Z,55.25
2019-04-03T19:20:28.620Z,55.19
2019-04-03T19:23:02.810Z,55.15
2019-04-03T19:25:34.271Z,55.16
2019-04-03T19:28:06.116Z,55.21
2019-04-03T19:30:38.725Z,55.30
2019-04-03T19:33:13.643Z,55.33
2019-04-03T19:35:44.258Z,55.33
2019-04-03T19:38:15.971Z,55.33
2019-04-03T19:40:47.829Z,55.31
2019-04-03T19:43:19.654Z,55.31
2019-04-03T19:45:52.455Z,55.29
2019-04-03T19:48:25.643Z,55.25
2019-04-03T19:50:57.963Z,55.22
2019-04-03T19:53:29.727Z,55.22
2019-04-03T19:56:01.444Z,55.25
2019-04-03T19:58:33.355Z,55.27
2019-04-03T20:01:07.495Z,55.30
2019-04-03T20:03:39.564Z,55.30
2019-04-03T20:06:11.279Z,55.27
2019-04-03T20:08:42.997Z,55.17
2019-04-03T20:11:14.968Z,55.13
2019-04-03T20:13:47.383Z,55.10
2019-04-03T20:16:19.411Z,55.06
2019-04-03T20:18:51.906Z,55.12
2019-04-03T20:21:23.791Z,55.18
2019-04-03T20:23:55.503Z,55.22
2019-04-03T20:26:27.227Z,55.21
2019-04-03T20:29:01.966Z,55.15
2019-04-03T20:31:35.470Z,55.13
2019-04-03T20:34:06.909Z,55.12
2019-04-03T20:36:38.629Z,55.07
2019-04-03T20:39:10.978Z,54.98
2019-04-03T20:41:42.981Z,54.97
2019-04-03T20:44:17.466Z,55.04
2019-04-03T20:46:48.531Z,55.08
2019-04-03T20:49:21.157Z,55.08
2019-04-03T20:51:52.876Z,55.07
2019-04-03T20:54:24.630Z,55.11
2019-04-03T20:56:58.471Z,55.30
2019-04-03T20:59:30.869Z,55.42
2019-04-03T21:02:02.559Z,55.47
2019-04-03T21:04:34.855Z,55.49
2019-04-03T21:07:06.630Z,55.50
2019-04-03T21:09:38.514Z,55.59
2019-04-03T21:12:10.240Z,55.70
2019-04-03T21:14:42.326Z,55.77
2019-04-03T21:17:14.037Z,55.82
2019-04-03T21:19:46.747Z,55.80
2019-04-03T21:22:18.450Z,55.76
2019-04-03T21:24:50.494Z,55.74
2019-04-03T21:27:22.497Z,55.72
2019-04-03T21:29:54.203Z,55.78
2019-04-03T21:32:26.918Z,55.82
2019-04-03T21:35:03.101Z,55.87
2019-04-03T21:37:34.035Z,55.91
2019-04-03T21:40:06.239Z,55.96
2019-04-03T21:42:37.902Z,56.03
2019-04-03T21:45:09.855Z,56.08
2019-04-03T21:47:42.717Z,56.04
2019-04-03T21:50:19.044Z,56.05
2019-04-03T21:52:49.078Z,55.99
2019-04-03T21:55:21.098Z,55.97
2019-04-03T21:57:53.436Z,56.00
2019-04-03T22:01:21.015Z,56.03
2019-04-03T22:03:54.420Z,56.07
2019-04-03T22:06:27.580Z,56.06
2019-04-03T22:09:00.393Z,56.10
2019-04-03T22:11:34.860Z,56.13
2019-04-03T22:14:06.800Z,56.12
2019-04-03T22:16:38.682Z,56.15
2019-04-03T22:19:10.372Z,56.17
2019-04-03T22:21:42.665Z,56.14
2019-04-03T22:24:14.337Z,56.08
2019-04-03T22:26:46.314Z,56.14
2019-04-03T22:29:19.973Z,56.16
2019-04-03T22:31:53.695Z,56.20
2019-04-03T22:34:24.806Z,56.22
2019-04-03T22:36:57.752Z,56.23
2019-04-03T22:39:29.734Z,56.23
2019-04-03T22:42:01.412Z,56.26
2019-04-03T22:44:33.173Z,56.30
2019-04-03T22:47:04.838Z,56.24
2019-04-03T22:49:36.577Z,56.22
2019-04-03T22:52:08.884Z,56.29
2019-04-03T22:54:43.608Z,56.27
2019-04-03T22:57:15.064Z,56.28
2019-04-03T22:59:46.682Z,56.35
2019-04-03T23:02:18.558Z,56.41
2019-04-03T23:04:50.304Z,56.46
2019-04-03T23:07:21.963Z,56.50
2019-04-03T23:09:56.494Z,56.50
2019-04-03T23:12:28.020Z,56.45
2019-04-03T23:15:00.291Z,56.44
2019-04-03T23:17:31.999Z,56.42
2019-04-03T23:20:03.614Z,56.47
2019-04-03T23:22:35.361Z,56.51
2019-04-03T23:25:08.587Z,56.54
2019-04-03T23:27:40.275Z,56.53
2019-04-03T23:30:12.046Z,56.52
2019-04-03T23:32:45.739Z,56.52
2019-04-03T23:35:20.330Z,56.47
2019-04-03T23:37:50.688Z,56.45
2019-04-03T23:40:38.023Z,56.44
2019-04-03T23:43:27.386Z,56.44
2019-04-03T23:46:02.411Z,56.45
2019-04-03T23:48:34.187Z,56.49
2019-04-03T23:51:06.429Z,56.50
2019-04-03T23:53:38.153Z,56.57
2019-04-03T23:56:09.772Z,56.63
2019-04-03T23:58:43.608Z,56.59
